createdAt,value
2023-01-30T00:02:24.610Z,12.33
2023-01-30T00:05:12.493Z,13.17
2023-01-30T00:07:59.888Z,12.53
2023-01-30T00:10:47.936Z,13.03
2023-01-30T00:13:36.497Z,12.37
2023-01-30T00:16:24.266Z,13.17
2023-01-30T00:19:12.223Z,11.20
2023-01-30T00:22:00.117Z,12.70
2023-01-30T00:24:47.600Z,11.57
2023-01-30T00:27:35.441Z,11.10
2023-01-30T00:30:23.363Z,14.57
2023-01-30T00:33:11.915Z,12.23
2023-01-30T00:35:59.353Z,12.57
2023-01-30T00:38:47.034Z,11.83
2023-01-30T00:41:52.863Z,12.53
2023-01-30T00:44:59.108Z,12.53
2023-01-30T00:47:47.328Z,12.10
2023-01-30T00:50:42.980Z,14.00
2023-01-30T00:53:30.903Z,12.77
2023-01-30T00:56:18.859Z,12.07
2023-01-30T00:59:06.738Z,12.20
2023-01-30T01:01:54.478Z,12.63
2023-01-30T01:04:45.421Z,13.77
2023-01-30T01:07:32.830Z,13.03
2023-01-30T01:10:20.777Z,12.67
2023-01-30T01:13:10.351Z,12.57
2023-01-30T01:15:58.048Z,13.10
2023-01-30T01:18:45.521Z,12.07
2023-01-30T01:21:33.397Z,12.10
2023-01-30T01:24:20.883Z,13.13
2023-01-30T01:27:08.831Z,13.20
2023-01-30T01:29:56.249Z,12.80
2023-01-30T01:32:44.121Z,13.77
2023-01-30T01:35:31.498Z,12.50
2023-01-30T01:38:19.190Z,12.60
2023-01-30T01:41:06.645Z,13.03
2023-01-30T01:44:04.935Z,12.87
2023-01-30T01:46:54.564Z,13.97
2023-01-30T01:49:42.485Z,12.53
2023-01-30T01:52:30.022Z,13.07
2023-01-30T01:55:19.818Z,13.33
2023-01-30T01:58:16.278Z,13.70
2023-01-30T02:01:04.551Z,12.33
2023-01-30T02:03:55.996Z,14.40
2023-01-30T02:06:43.604Z,13.33
2023-01-30T02:09:31.520Z,12.47
2023-01-30T02:12:18.905Z,13.00
2023-01-30T02:15:07.188Z,13.70
2023-01-30T02:17:55.118Z,12.83
2023-01-30T02:21:01.581Z,13.20
2023-01-30T02:23:55.349Z,13.20
2023-01-30T02:26:48.639Z,12.30
2023-01-30T02:29:50.951Z,12.40
2023-01-30T02:33:02.860Z,14.03
2023-01-30T02:36:05.474Z,11.83
2023-01-30T02:39:02.518Z,12.83
2023-01-30T02:41:54.679Z,13.17
2023-01-30T02:44:42.564Z,12.87
2023-01-30T02:47:33.125Z,13.63
2023-01-30T02:50:23.865Z,12.13
2023-01-30T02:53:11.673Z,12.83
2023-01-30T02:55:59.357Z,12.43
2023-01-30T02:58:50.033Z,13.00
2023-01-30T03:02:00.463Z,11.83
2023-01-30T03:04:52.782Z,11.97
2023-01-30T03:08:01.815Z,12.93
2023-01-30T03:10:51.950Z,13.50
2023-01-30T03:13:49.043Z,13.27
2023-01-30T03:16:38.785Z,12.93
2023-01-30T03:19:27.428Z,13.53
2023-01-30T03:22:15.318Z,12.33
2023-01-30T03:25:02.678Z,11.57
2023-01-30T03:27:52.195Z,12.83
2023-01-30T03:30:39.631Z,14.20
2023-01-30T03:33:27.511Z,13.13
2023-01-30T03:36:15.307Z,13.00
2023-01-30T03:39:03.251Z,12.73
2023-01-30T03:41:51.021Z,13.73
2023-01-30T03:44:38.751Z,13.53
2023-01-30T03:47:25.968Z,12.90
2023-01-30T03:50:14.018Z,14.63
2023-01-30T03:53:01.479Z,14.00
2023-01-30T03:55:49.373Z,12.47
2023-01-30T03:58:36.755Z,14.10
2023-01-30T04:01:24.605Z,12.03
2023-01-30T04:04:12.683Z,13.00
2023-01-30T04:07:00.575Z,14.13
2023-01-30T04:09:47.766Z,13.97
2023-01-30T04:12:35.451Z,13.60
2023-01-30T04:15:22.681Z,12.63
2023-01-30T04:18:10.613Z,12.80
2023-01-30T04:20:58.051Z,13.30
2023-01-30T04:23:46.031Z,12.73
2023-01-30T04:26:33.769Z,14.43
2023-01-30T04:29:21.213Z,14.20
2023-01-30T04:32:09.154Z,13.00
2023-01-30T04:34:56.563Z,12.90
2023-01-30T04:37:44.054Z,12.37
2023-01-30T04:40:31.472Z,12.97
2023-01-30T04:43:20.005Z,12.67
2023-01-30T04:46:07.568Z,13.53
2023-01-30T04:48:55.475Z,13.20
2023-01-30T04:51:42.872Z,12.80
2023-01-30T04:54:30.555Z,12.27
2023-01-30T04:57:17.754Z,13.50
2023-01-30T05:00:06.598Z,12.50
2023-01-30T05:02:56.335Z,12.03
2023-01-30T05:05:46.474Z,13.83
2023-01-30T05:08:34.369Z,12.53
2023-01-30T05:11:21.880Z,13.53
2023-01-30T05:14:09.789Z,12.53
2023-01-30T05:16:57.217Z,12.03
2023-01-30T05:19:45.096Z,11.47
2023-01-30T05:22:32.555Z,11.60
2023-01-30T05:25:20.351Z,11.37
2023-01-30T05:28:08.554Z,10.57
2023-01-30T05:30:56.427Z,11.33
2023-01-30T05:33:44.431Z,11.77
2023-01-30T05:36:31.987Z,11.63
2023-01-30T05:39:19.267Z,10.53
2023-01-30T05:42:07.162Z,10.77
2023-01-30T05:44:55.283Z,11.97
2023-01-30T05:47:42.769Z,10.77
2023-01-30T05:50:31.207Z,10.57
2023-01-30T05:53:19.218Z,11.60
2023-01-30T05:56:07.269Z,10.80
2023-01-30T05:58:55.703Z,10.60
2023-01-30T06:01:43.638Z,10.83
2023-01-30T06:04:31.483Z,10.50
2023-01-30T06:07:18.910Z,10.87
2023-01-30T06:10:07.039Z,11.30
2023-01-30T06:12:54.479Z,10.23
2023-01-30T06:15:42.428Z,10.50
2023-01-30T06:18:29.873Z,10.97
2023-01-30T06:21:17.899Z,9.73
2023-01-30T06:24:05.419Z,9.40
2023-01-30T06:26:53.407Z,10.17
2023-01-30T06:29:40.807Z,9.57
2023-01-30T06:32:28.272Z,10.53
2023-01-30T06:35:15.742Z,10.83
2023-01-30T06:38:03.499Z,10.50
2023-01-30T06:40:51.738Z,11.43
2023-01-30T06:43:39.653Z,10.20
2023-01-30T06:46:27.795Z,9.40
2023-01-30T06:49:15.748Z,9.37
2023-01-30T06:52:03.221Z,9.87
2023-01-30T06:54:51.167Z,9.37
2023-01-30T06:57:38.951Z,10.73
2023-01-30T07:00:26.952Z,11.27
2023-01-30T07:03:15.528Z,10.87
2023-01-30T07:06:03.501Z,9.47
2023-01-30T07:08:50.878Z,9.70
2023-01-30T07:11:38.760Z,10.37
2023-01-30T07:14:26.185Z,10.00
2023-01-30T07:17:14.747Z,10.47
2023-01-30T07:20:02.175Z,9.20
2023-01-30T07:22:51.076Z,9.33
2023-01-30T07:25:39.010Z,9.93
2023-01-30T07:28:26.984Z,9.53
2023-01-30T07:31:14.969Z,9.60
2023-01-30T07:34:02.425Z,8.93
2023-01-30T07:36:50.335Z,9.10
2023-01-30T07:39:37.758Z,8.67
2023-01-30T07:42:25.570Z,8.60
2023-01-30T07:45:13.137Z,8.43
2023-01-30T07:48:01.057Z,9.70
2023-01-30T07:50:48.586Z,8.63
2023-01-30T07:53:36.479Z,8.87
2023-01-30T07:56:23.929Z,8.60
2023-01-30T07:59:12.574Z,8.73
2023-01-30T08:02:00.039Z,8.33
2023-01-30T08:04:47.516Z,8.43
2023-01-30T08:07:34.982Z,9.77
2023-01-30T08:10:22.424Z,8.10
2023-01-30T08:13:10.334Z,8.90
2023-01-30T08:16:00.405Z,7.97
2023-01-30T08:18:48.370Z,9.43
2023-01-30T08:21:37.356Z,7.87
2023-01-30T08:24:25.306Z,9.30
2023-01-30T08:27:12.773Z,7.63
2023-01-30T08:30:00.715Z,8.60
2023-01-30T08:32:48.911Z,8.13
2023-01-30T08:35:36.304Z,8.27
2023-01-30T08:38:23.986Z,9.27
2023-01-30T08:41:11.463Z,8.63
2023-01-30T08:43:59.386Z,7.90
2023-01-30T08:46:46.838Z,8.50
2023-01-30T08:49:34.303Z,7.47
2023-01-30T08:52:21.707Z,7.67
2023-01-30T08:55:09.635Z,8.87
2023-01-30T08:57:57.222Z,8.37
2023-01-30T09:00:45.577Z,8.13
2023-01-30T09:03:33.827Z,7.97
2023-01-30T09:06:21.754Z,8.17
2023-01-30T09:09:09.215Z,7.83
2023-01-30T09:11:57.115Z,7.40
2023-01-30T09:14:44.563Z,7.87
2023-01-30T09:17:32.314Z,7.97
2023-01-30T09:20:20.748Z,7.77
2023-01-30T09:23:08.807Z,7.73
2023-01-30T09:25:56.753Z,7.13
2023-01-30T09:28:44.460Z,8.13
2023-01-30T09:31:31.906Z,7.87
2023-01-30T09:34:19.793Z,7.47
2023-01-30T09:37:08.677Z,7.63
2023-01-30T09:39:56.122Z,7.30
2023-01-30T09:42:46.261Z,7.07
2023-01-30T09:45:45.693Z,6.90
2023-01-30T09:48:37.501Z,7.30
2023-01-30T09:51:32.002Z,7.13
2023-01-30T09:54:35.139Z,6.33
2023-01-30T09:57:24.443Z,7.43
2023-01-30T10:00:14.610Z,7.00
2023-01-30T10:03:21.412Z,5.73
2023-01-30T10:06:14.684Z,6.07
2023-01-30T10:09:08.028Z,6.57
2023-01-30T10:12:01.647Z,6.57
2023-01-30T10:15:16.161Z,5.40
2023-01-30T10:18:16.090Z,5.63
2023-01-30T10:21:13.303Z,5.60
2023-01-30T10:24:20.968Z,5.70
2023-01-30T10:27:16.705Z,5.43
2023-01-30T10:30:05.989Z,5.70
2023-01-30T10:33:02.608Z,4.77
2023-01-30T10:35:59.144Z,5.33
2023-01-30T10:38:51.598Z,4.63
2023-01-30T10:41:44.531Z,5.50
2023-01-30T10:44:32.441Z,4.27
2023-01-30T10:47:23.148Z,5.00
2023-01-30T10:50:16.488Z,5.10
2023-01-30T10:53:13.223Z,5.17
2023-01-30T10:56:06.131Z,4.20
2023-01-30T10:59:19.932Z,4.10
2023-01-30T11:02:16.383Z,4.80
2023-01-30T11:05:15.903Z,4.67
2023-01-30T11:08:03.413Z,5.10
2023-01-30T11:10:52.015Z,4.37
2023-01-30T11:13:39.416Z,4.70
2023-01-30T11:16:27.428Z,4.43
2023-01-30T11:19:20.135Z,4.37
2023-01-30T11:22:08.283Z,4.47
2023-01-30T11:25:14.097Z,3.43
2023-01-30T11:28:06.840Z,3.63
2023-01-30T11:30:58.727Z,4.47
2023-01-30T11:33:46.493Z,4.00
2023-01-30T11:36:35.745Z,3.33
2023-01-30T11:39:24.601Z,3.60
2023-01-30T11:42:12.202Z,4.07
2023-01-30T11:45:15.974Z,4.50
2023-01-30T11:48:06.886Z,4.57
2023-01-30T11:50:58.540Z,3.97
2023-01-30T11:53:47.882Z,3.57
2023-01-30T11:56:36.607Z,4.27
2023-01-30T11:59:37.742Z,4.33
2023-01-30T12:02:27.129Z,4.40
2023-01-30T12:05:22.412Z,4.27
2023-01-30T12:08:15.376Z,4.20
2023-01-30T12:11:03.269Z,3.63
2023-01-30T12:13:52.025Z,3.63
2023-01-30T12:17:05.952Z,3.30
2023-01-30T12:20:11.895Z,4.17
2023-01-30T12:22:59.279Z,4.03
2023-01-30T12:25:56.229Z,4.63
2023-01-30T12:28:59.914Z,4.43
2023-01-30T12:31:49.842Z,4.90
2023-01-30T12:34:38.334Z,4.13
2023-01-30T12:37:28.529Z,3.70
2023-01-30T12:40:31.182Z,4.30
2023-01-30T12:43:28.779Z,3.63
2023-01-30T12:46:28.918Z,4.90
2023-01-30T12:49:31.631Z,3.93
2023-01-30T12:52:31.358Z,3.63
2023-01-30T12:55:18.770Z,3.87
2023-01-30T12:58:15.600Z,4.50
2023-01-30T13:01:06.933Z,4.40
2023-01-30T13:03:54.496Z,4.83
2023-01-30T13:06:47.225Z,4.63
2023-01-30T13:09:37.454Z,3.80
2023-01-30T13:12:43.333Z,3.20
2023-01-30T13:15:31.226Z,3.47
2023-01-30T13:18:21.293Z,3.90
2023-01-30T13:21:14.877Z,3.67
2023-01-30T13:24:05.257Z,3.87
2023-01-30T13:26:54.170Z,3.90
2023-01-30T13:29:41.951Z,5.30
2023-01-30T13:32:35.353Z,4.10
2023-01-30T13:35:49.188Z,3.77
2023-01-30T13:38:39.954Z,3.97
2023-01-30T13:41:30.502Z,3.63
2023-01-30T13:44:27.705Z,3.70
2023-01-30T13:47:28.629Z,2.97
2023-01-30T13:50:22.572Z,3.33
2023-01-30T13:53:17.669Z,2.80
2023-01-30T13:56:16.239Z,3.57
2023-01-30T13:59:17.883Z,2.63
2023-01-30T14:02:09.387Z,3.20
2023-01-30T14:04:58.975Z,3.10
2023-01-30T14:07:46.205Z,2.90
2023-01-30T14:10:35.087Z,3.37
2023-01-30T14:13:24.147Z,3.57
2023-01-30T14:16:11.621Z,2.57
2023-01-30T14:18:59.487Z,3.10
2023-01-30T14:21:57.358Z,2.60
2023-01-30T14:24:45.275Z,2.80
2023-01-30T14:27:33.001Z,3.50
2023-01-30T14:30:32.379Z,3.00
2023-01-30T14:33:23.083Z,3.00
2023-01-30T14:36:16.542Z,3.03
2023-01-30T14:39:22.902Z,3.27
2023-01-30T14:42:20.117Z,2.83
2023-01-30T14:45:17.948Z,3.30
2023-01-30T14:48:23.824Z,3.07
2023-01-30T14:51:23.708Z,2.73
2023-01-30T14:54:17.007Z,3.40
2023-01-30T14:57:18.870Z,2.90
2023-01-30T15:00:18.358Z,3.40
2023-01-30T15:03:17.320Z,3.20
2023-01-30T15:06:07.212Z,3.27
2023-01-30T15:08:54.670Z,4.20
2023-01-30T15:11:43.948Z,3.60
2023-01-30T15:14:35.353Z,3.23
2023-01-30T15:17:30.847Z,3.30
2023-01-30T15:20:18.295Z,3.47
2023-01-30T15:23:32.851Z,3.40
2023-01-30T15:26:24.942Z,3.40
2023-01-30T15:29:21.934Z,4.13
2023-01-30T15:32:19.537Z,3.40
2023-01-30T15:35:24.441Z,4.10
2023-01-30T15:38:34.758Z,3.60
2023-01-30T15:41:22.194Z,4.00
2023-01-30T15:44:12.841Z,4.07
2023-01-30T15:47:02.820Z,4.43
2023-01-30T15:49:58.435Z,4.43
2023-01-30T15:52:50.955Z,4.33
2023-01-30T15:55:38.957Z,4.20
2023-01-30T15:58:26.564Z,4.57
2023-01-30T16:01:19.507Z,4.50
2023-01-30T16:04:24.385Z,4.30
2023-01-30T16:07:15.502Z,4.83
2023-01-30T16:10:08.148Z,4.03
2023-01-30T16:12:56.802Z,4.10
2023-01-30T16:15:48.479Z,4.37
2023-01-30T16:18:56.489Z,3.83
2023-01-30T16:21:46.868Z,4.80
2023-01-30T16:24:36.199Z,5.07
2023-01-30T16:27:35.079Z,4.20
2023-01-30T16:30:26.747Z,4.97
2023-01-30T16:33:18.085Z,4.23
2023-01-30T16:36:21.304Z,4.73
2023-01-30T16:39:29.495Z,5.07
2023-01-30T16:42:25.522Z,5.07
2023-01-30T16:45:13.009Z,4.40
2023-01-30T16:48:23.656Z,4.30
2023-01-30T16:51:11.393Z,4.63
2023-01-30T16:54:00.489Z,4.83
2023-01-30T16:56:51.034Z,3.80
2023-01-30T16:59:38.337Z,4.57
2023-01-30T17:02:35.702Z,5.13
2023-01-30T17:05:40.300Z,5.30
2023-01-30T17:08:46.106Z,5.13
2023-01-30T17:11:41.352Z,5.20
2023-01-30T17:14:32.940Z,4.83
2023-01-30T17:17:20.839Z,5.13
2023-01-30T17:20:08.695Z,5.20
2023-01-30T17:23:00.212Z,5.40
2023-01-30T17:25:48.627Z,4.97
2023-01-30T17:28:36.499Z,4.90
2023-01-30T17:31:24.132Z,5.20
2023-01-30T17:34:12.718Z,5.93
2023-01-30T17:36:59.979Z,4.93
2023-01-30T17:39:48.007Z,4.57
2023-01-30T17:42:35.431Z,4.80
2023-01-30T17:45:23.385Z,5.53
2023-01-30T17:48:13.191Z,5.23
2023-01-30T17:51:01.071Z,4.77
2023-01-30T17:53:48.488Z,5.17
2023-01-30T17:56:38.445Z,5.57
2023-01-30T17:59:25.748Z,4.93
2023-01-30T18:02:13.364Z,4.53
2023-01-30T18:05:00.892Z,4.53
2023-01-30T18:07:48.182Z,5.23
2023-01-30T18:10:35.666Z,5.00
2023-01-30T18:13:23.551Z,4.13
2023-01-30T18:16:30.808Z,5.20
2023-01-30T18:19:19.063Z,4.87
2023-01-30T18:22:06.563Z,4.93
2023-01-30T18:24:53.948Z,4.33
2023-01-30T18:27:47.159Z,6.10
2023-01-30T18:30:34.648Z,4.10
2023-01-30T18:33:22.041Z,4.57
2023-01-30T18:36:10.553Z,4.27
2023-01-30T18:38:58.436Z,4.63
2023-01-30T18:41:45.828Z,4.20
2023-01-30T18:44:33.742Z,4.70
2023-01-30T18:47:21.700Z,5.23
2023-01-30T18:50:09.517Z,4.10
2023-01-30T18:52:58.389Z,3.70
2023-01-30T18:55:52.040Z,4.13
2023-01-30T18:58:39.794Z,3.93
2023-01-30T19:01:28.121Z,4.70
2023-01-30T19:04:15.546Z,5.13
2023-01-30T19:07:02.971Z,4.70
2023-01-30T19:09:50.412Z,5.43
2023-01-30T19:12:56.327Z,4.23
2023-01-30T19:15:43.755Z,3.60
2023-01-30T19:18:32.612Z,4.40
2023-01-30T19:21:20.246Z,4.57
2023-01-30T19:24:08.658Z,3.00
2023-01-30T19:26:56.131Z,3.83
2023-01-30T19:29:43.493Z,4.70
2023-01-30T19:32:31.403Z,4.47
2023-01-30T19:35:19.455Z,3.57
2023-01-30T19:38:07.907Z,4.37
2023-01-30T19:40:55.339Z,4.23
2023-01-30T19:43:43.041Z,4.47
2023-01-30T19:46:31.640Z,3.60
2023-01-30T19:49:18.944Z,3.87
2023-01-30T19:52:06.840Z,4.37
2023-01-30T19:54:54.279Z,3.70
2023-01-30T19:57:42.168Z,3.53
2023-01-30T20:00:29.561Z,4.57
2023-01-30T20:03:17.063Z,4.67
2023-01-30T20:06:13.067Z,3.97
2023-01-30T20:09:01.496Z,3.77
2023-01-30T20:11:48.938Z,3.87
2023-01-30T20:14:36.638Z,3.83
2023-01-30T20:17:24.558Z,3.30
2023-01-30T20:20:12.668Z,3.50
2023-01-30T20:23:00.379Z,3.63
2023-01-30T20:25:48.607Z,3.97
2023-01-30T20:28:36.583Z,4.10
2023-01-30T20:31:25.607Z,4.33
2023-01-30T20:34:14.734Z,3.17
2023-01-30T20:37:02.176Z,3.90
2023-01-30T20:39:51.524Z,3.40
2023-01-30T20:42:38.924Z,3.17
2023-01-30T20:45:26.794Z,3.23
2023-01-30T20:48:14.174Z,3.17
2023-01-30T20:51:21.744Z,3.33
2023-01-30T20:54:10.685Z,3.70
2023-01-30T20:56:58.283Z,3.70
2023-01-30T20:59:47.176Z,3.10
2023-01-30T21:02:35.120Z,3.87
2023-01-30T21:05:23.051Z,2.77
2023-01-30T21:08:10.447Z,3.37
2023-01-30T21:11:05.719Z,3.40
2023-01-30T21:13:53.151Z,3.37
2023-01-30T21:16:40.742Z,3.40
2023-01-30T21:19:28.086Z,3.47
2023-01-30T21:22:16.763Z,3.27
2023-01-30T21:25:05.283Z,3.23
2023-01-30T21:27:53.154Z,2.87
2023-01-30T21:30:41.944Z,2.80
2023-01-30T21:33:29.825Z,4.03
2023-01-30T21:36:17.957Z,3.73
2023-01-30T21:39:24.359Z,3.40
2023-01-30T21:42:30.361Z,3.50
2023-01-30T21:45:20.609Z,4.10
2023-01-30T21:48:08.885Z,3.93
2023-01-30T21:50:56.404Z,4.07
2023-01-30T21:53:44.275Z,3.20
2023-01-30T21:56:31.562Z,3.13
2023-01-30T21:59:19.459Z,4.23
2023-01-30T22:02:06.877Z,4.20
2023-01-30T22:04:54.879Z,3.77
2023-01-30T22:07:42.319Z,4.23
2023-01-30T22:10:30.291Z,4.60
2023-01-30T22:13:18.164Z,4.70
2023-01-30T22:16:07.161Z,3.53
2023-01-30T22:18:59.060Z,3.70
2023-01-30T22:21:46.529Z,4.80
2023-01-30T22:24:34.486Z,4.33
2023-01-30T22:27:21.952Z,3.47
2023-01-30T22:30:10.175Z,4.07
2023-01-30T22:32:57.896Z,3.47
2023-01-30T22:35:51.700Z,3.97
2023-01-30T22:38:42.849Z,3.87
2023-01-30T22:41:32.443Z,3.20
2023-01-30T22:44:19.881Z,3.13
2023-01-30T22:47:07.367Z,3.33
2023-01-30T22:49:54.900Z,3.27
2023-01-30T22:52:42.879Z,3.27
2023-01-30T22:55:30.769Z,4.20
2023-01-30T22:58:18.165Z,3.70
2023-01-30T23:01:06.980Z,2.93
2023-01-30T23:03:58.393Z,3.53
2023-01-30T23:06:47.210Z,3.40
2023-01-30T23:09:35.630Z,3.67
2023-01-30T23:12:41.664Z,3.00
2023-01-30T23:15:29.542Z,2.83
2023-01-30T23:18:35.962Z,3.53
2023-01-30T23:21:24.779Z,3.10
2023-01-30T23:24:16.181Z,3.23
2023-01-30T23:27:03.678Z,3.67
2023-01-30T23:29:51.060Z,3.03
2023-01-30T23:32:38.922Z,2.93
2023-01-30T23:35:26.304Z,3.43
2023-01-30T23:38:17.118Z,3.90
2023-01-30T23:41:05.498Z,3.53
2023-01-30T23:43:53.725Z,3.93
2023-01-30T23:46:42.502Z,3.20
2023-01-30T23:49:30.408Z,3.00
2023-01-30T23:52:17.776Z,3.43
2023-01-30T23:55:07.106Z,3.37
2023-01-30T23:57:54.535Z,3.27
